createdAt,value
2022-08-01T00:00:51.291Z,39.02
2022-08-01T00:01:51.370Z,41.62
2022-08-01T00:02:51.347Z,38.47
2022-08-01T00:03:51.272Z,38.60
2022-08-01T00:04:51.249Z,38.10
2022-08-01T00:05:51.237Z,40.22
2022-08-01T00:06:51.244Z,38.77
2022-08-01T00:07:51.292Z,40.87
2022-08-01T00:08:51.225Z,37.45
2022-08-01T00:09:51.227Z,37.29
2022-08-01T00:10:51.208Z,38.39
2022-08-01T00:11:59.790Z,38.36
2022-08-01T00:12:52.245Z,37.89
2022-08-01T00:13:52.291Z,38.21
2022-08-01T00:14:51.188Z,38.38
2022-08-01T00:15:54.329Z,39.92
2022-08-01T00:16:51.170Z,39.02
2022-08-01T00:17:51.154Z,38.18
2022-08-01T00:18:51.182Z,38.80
2022-08-01T00:19:51.144Z,38.09
2022-08-01T00:20:51.143Z,38.15
2022-08-01T00:21:52.257Z,38.94
2022-08-01T00:22:51.133Z,40.95
2022-08-01T00:23:51.141Z,37.86
2022-08-01T00:24:51.099Z,39.14
2022-08-01T00:25:51.093Z,38.13
2022-08-01T00:26:51.094Z,37.82
2022-08-01T00:27:51.084Z,37.91
2022-08-01T00:28:51.116Z,38.44
2022-08-01T00:30:12.166Z,37.53
2022-08-01T00:30:52.059Z,38.05
2022-08-01T00:31:51.669Z,39.73
2022-08-01T00:32:51.045Z,39.97
2022-08-01T00:33:51.087Z,39.98
2022-08-01T00:34:51.023Z,39.11
2022-08-01T00:35:51.033Z,39.23
2022-08-01T00:36:51.019Z,41.98
2022-08-01T00:37:51.008Z,38.07
2022-08-01T00:38:51.029Z,38.43
2022-08-01T00:39:51.256Z,38.03
2022-08-01T00:40:50.987Z,37.96
2022-08-01T00:41:50.976Z,37.94
2022-08-01T00:42:51.973Z,44.90
2022-08-01T00:43:50.984Z,37.87
2022-08-01T00:44:50.984Z,37.26
2022-08-01T00:45:50.954Z,39.59
2022-08-01T00:46:50.968Z,38.44
2022-08-01T00:47:55.345Z,38.56
2022-08-01T00:48:50.960Z,38.88
2022-08-01T00:49:50.960Z,38.72
2022-08-01T00:50:50.924Z,38.76
2022-08-01T00:51:50.908Z,39.02
2022-08-01T00:52:51.597Z,37.73
2022-08-01T00:53:52.465Z,37.75
2022-08-01T00:54:50.920Z,38.26
2022-08-01T00:55:50.890Z,42.46
2022-08-01T00:56:50.894Z,39.37
2022-08-01T00:58:05.160Z,38.19
2022-08-01T00:58:51.857Z,38.07
2022-08-01T00:59:51.852Z,38.29
2022-08-01T01:00:53.911Z,38.45
2022-08-01T01:01:50.868Z,41.68
2022-08-01T01:02:50.830Z,40.91
2022-08-01T01:03:59.391Z,42.21
2022-08-01T01:04:52.963Z,37.54
2022-08-01T01:05:50.805Z,37.64
2022-08-01T01:06:50.818Z,37.95
2022-08-01T01:07:50.789Z,37.44
2022-08-01T01:08:50.804Z,37.54
2022-08-01T01:09:50.779Z,37.55
2022-08-01T01:10:50.798Z,42.31
2022-08-01T01:11:50.757Z,41.21
2022-08-01T01:12:50.759Z,38.28
2022-08-01T01:13:50.893Z,38.52
2022-08-01T01:14:50.757Z,38.41
2022-08-01T01:15:50.748Z,38.36
2022-08-01T01:16:50.741Z,38.86
2022-08-01T01:17:51.944Z,41.32
2022-08-01T01:18:51.766Z,37.96
2022-08-01T01:19:50.700Z,38.05
2022-08-01T01:20:50.715Z,38.39
2022-08-01T01:21:50.685Z,40.85
2022-08-01T01:22:50.690Z,43.91
2022-08-01T01:23:50.677Z,41.54
2022-08-01T01:24:50.691Z,40.19
2022-08-01T01:25:50.703Z,40.03
2022-08-01T01:26:50.665Z,40.02
2022-08-01T01:27:50.650Z,40.04
2022-08-01T01:28:50.663Z,39.97
2022-08-01T01:29:59.476Z,38.35
2022-08-01T01:30:51.658Z,38.42
2022-08-01T01:31:50.612Z,38.19
2022-08-01T01:32:50.606Z,37.88
2022-08-01T01:33:50.593Z,38.75
2022-08-01T01:34:50.598Z,37.93
2022-08-01T01:35:50.581Z,38.02
2022-08-01T01:36:50.605Z,37.82
2022-08-01T01:37:50.571Z,37.42
2022-08-01T01:38:51.245Z,40.14
2022-08-01T01:39:54.100Z,38.01
2022-08-01T01:40:50.541Z,38.14
2022-08-01T01:41:50.565Z,38.08
2022-08-01T01:42:50.563Z,37.95
2022-08-01T01:43:50.615Z,37.95
2022-08-01T01:44:50.523Z,37.28
2022-08-01T01:45:50.511Z,37.00
2022-08-01T01:46:50.524Z,37.26
2022-08-01T01:47:50.503Z,37.17
2022-08-01T01:48:51.301Z,37.83
2022-08-01T01:49:50.559Z,38.20
2022-08-01T01:50:50.471Z,39.47
2022-08-01T01:52:02.173Z,37.59
2022-08-01T01:52:51.463Z,38.25
2022-08-01T01:53:50.446Z,38.22
2022-08-01T01:54:50.447Z,37.71
2022-08-01T01:55:50.441Z,40.84
2022-08-01T01:56:50.493Z,37.38
2022-08-01T01:57:51.198Z,37.53
2022-08-01T01:58:50.436Z,37.88
2022-08-01T01:59:50.417Z,41.13
2022-08-01T02:00:50.541Z,39.61
2022-08-01T02:02:06.148Z,37.97
2022-08-01T02:02:51.471Z,38.55
2022-08-01T02:03:50.379Z,39.41
2022-08-01T02:04:50.370Z,42.59
2022-08-01T02:05:50.360Z,41.81
2022-08-01T02:06:50.375Z,40.39
2022-08-01T02:07:50.366Z,38.28
2022-08-01T02:08:50.382Z,38.58
2022-08-01T02:09:50.332Z,38.32
2022-08-01T02:10:50.322Z,41.04
2022-08-01T02:12:07.215Z,40.12
2022-08-01T02:12:51.336Z,37.74
2022-08-01T02:13:50.303Z,38.22
2022-08-01T02:14:50.295Z,37.59
2022-08-01T02:15:59.759Z,39.65
2022-08-01T02:16:51.314Z,37.74
2022-08-01T02:17:50.324Z,39.31
2022-08-01T02:18:50.287Z,39.80
2022-08-01T02:19:50.249Z,38.40
2022-08-01T02:20:50.253Z,44.74
2022-08-01T02:21:50.241Z,42.87
2022-08-01T02:22:50.292Z,39.41
2022-08-01T02:23:50.241Z,43.43
2022-08-01T02:24:50.226Z,39.47
2022-08-01T02:26:08.649Z,39.34
2022-08-01T02:26:51.235Z,40.73
2022-08-01T02:27:50.191Z,38.43
2022-08-01T02:28:50.236Z,38.59
2022-08-01T02:29:50.184Z,38.25
2022-08-01T02:30:50.188Z,39.65
2022-08-01T02:31:50.167Z,38.79
2022-08-01T02:32:50.166Z,38.49
2022-08-01T02:33:50.178Z,37.96
2022-08-01T02:34:50.141Z,37.92
2022-08-01T02:36:30.937Z,41.64
2022-08-01T02:36:51.158Z,41.89
2022-08-01T02:37:50.132Z,38.91
2022-08-01T02:38:50.157Z,39.83
2022-08-01T02:39:50.107Z,39.58
2022-08-01T02:40:50.103Z,39.61
2022-08-01T02:41:50.097Z,39.22
2022-08-01T02:42:50.085Z,40.63
2022-08-01T02:43:53.231Z,38.25
2022-08-01T02:44:50.069Z,39.24
2022-08-01T02:45:50.073Z,38.08
2022-08-01T02:46:50.076Z,41.40
2022-08-01T02:47:50.064Z,38.52
2022-08-01T02:48:50.066Z,40.69
2022-08-01T02:49:53.495Z,42.11
2022-08-01T02:50:50.040Z,40.72
2022-08-01T02:51:50.023Z,41.95
2022-08-01T02:52:50.016Z,42.38
2022-08-01T02:53:50.035Z,39.81
2022-08-01T02:54:50.029Z,41.31
2022-08-01T02:55:49.993Z,44.39
2022-08-01T02:56:49.982Z,39.48
2022-08-01T02:57:52.238Z,40.75
2022-08-01T02:58:49.980Z,38.67
2022-08-01T02:59:49.987Z,39.35
2022-08-01T03:00:49.962Z,41.50
2022-08-01T03:01:50.011Z,40.31
2022-08-01T03:02:49.942Z,41.07
2022-08-01T03:03:49.964Z,37.81
2022-08-01T03:04:53.793Z,40.12
2022-08-01T03:05:51.925Z,39.52
2022-08-01T03:06:49.919Z,41.46
2022-08-01T03:07:49.899Z,39.37
2022-08-01T03:08:49.919Z,38.21
2022-08-01T03:09:49.933Z,39.36
2022-08-01T03:10:49.889Z,41.32
2022-08-01T03:11:49.891Z,41.59
2022-08-01T03:12:49.875Z,42.40
2022-08-01T03:13:49.860Z,37.98
2022-08-01T03:14:50.392Z,41.79
2022-08-01T03:15:49.874Z,42.32
2022-08-01T03:16:49.857Z,43.26
2022-08-01T03:17:49.835Z,41.80
2022-08-01T03:18:49.837Z,43.96
2022-08-01T03:19:49.830Z,45.01
2022-08-01T03:20:49.848Z,43.63
2022-08-01T03:21:49.835Z,43.17
2022-08-01T03:22:49.802Z,43.93
2022-08-01T03:23:54.705Z,40.28
2022-08-01T03:24:51.814Z,42.04
2022-08-01T03:25:49.801Z,40.84
2022-08-01T03:26:49.772Z,40.21
2022-08-01T03:27:50.767Z,44.90
2022-08-01T03:28:49.755Z,45.02
2022-08-01T03:29:49.734Z,43.64
2022-08-01T03:30:49.777Z,44.35
2022-08-01T03:31:49.731Z,43.89
2022-08-01T03:32:49.718Z,44.11
2022-08-01T03:33:49.734Z,43.92
2022-08-01T03:34:49.710Z,38.43
2022-08-01T03:35:49.733Z,43.15
2022-08-01T03:36:49.984Z,43.72
2022-08-01T03:38:14.743Z,44.33
2022-08-01T03:38:51.677Z,41.24
2022-08-01T03:39:49.680Z,43.52
2022-08-01T03:40:49.723Z,43.82
2022-08-01T03:41:52.573Z,43.51
2022-08-01T03:42:49.653Z,42.71
2022-08-01T03:43:49.662Z,43.53
2022-08-01T03:44:49.656Z,42.36
2022-08-01T03:45:49.702Z,43.91
2022-08-01T03:46:49.631Z,44.68
2022-08-01T03:47:49.615Z,42.02
2022-08-01T03:48:49.693Z,42.65
2022-08-01T03:49:49.594Z,44.06
2022-08-01T03:50:49.592Z,42.01
2022-08-01T03:51:49.630Z,40.63
2022-08-01T03:52:49.581Z,42.51
2022-08-01T03:53:49.585Z,43.21
2022-08-01T03:54:49.579Z,45.34
2022-08-01T03:55:49.553Z,46.15
2022-08-01T03:56:49.588Z,41.31
2022-08-01T03:57:49.525Z,44.25
2022-08-01T03:58:50.065Z,44.57
2022-08-01T03:59:49.524Z,45.55
2022-08-01T04:00:49.518Z,41.18
2022-08-01T04:01:49.596Z,43.31
2022-08-01T04:02:49.502Z,43.53
2022-08-01T04:03:49.513Z,41.58
2022-08-01T04:04:49.490Z,44.09
2022-08-01T04:05:49.499Z,45.77
2022-08-01T04:06:49.511Z,43.16
2022-08-01T04:07:49.472Z,44.11
2022-08-01T04:08:49.459Z,43.74
2022-08-01T04:09:49.463Z,43.45
2022-08-01T04:10:50.382Z,47.23
2022-08-01T04:11:50.479Z,43.98
2022-08-01T04:12:49.428Z,44.46
2022-08-01T04:13:49.432Z,47.26
2022-08-01T04:14:49.413Z,45.13
2022-08-01T04:15:49.428Z,42.74
2022-08-01T04:16:49.444Z,45.88
2022-08-01T04:17:49.400Z,45.50
2022-08-01T04:18:49.391Z,44.59
2022-08-01T04:19:49.385Z,44.51
2022-08-01T04:20:49.372Z,44.34
2022-08-01T04:21:49.388Z,46.22
2022-08-01T04:22:49.390Z,46.08
2022-08-01T04:23:51.629Z,48.78
2022-08-01T04:24:52.352Z,44.84
2022-08-01T04:25:50.336Z,42.08
2022-08-01T04:26:49.349Z,43.93
2022-08-01T04:27:51.557Z,42.45
2022-08-01T04:28:49.312Z,43.65
2022-08-01T04:29:49.305Z,43.95
2022-08-01T04:30:49.300Z,42.74
2022-08-01T04:31:49.318Z,41.36
2022-08-01T04:32:49.316Z,43.48
2022-08-01T04:33:49.279Z,44.52
2022-08-01T04:34:49.265Z,43.64
2022-08-01T04:36:03.972Z,44.37
2022-08-01T04:36:50.298Z,41.03
2022-08-01T04:37:49.242Z,42.62
2022-08-01T04:38:49.241Z,43.88
2022-08-01T04:39:50.717Z,42.85
2022-08-01T04:40:49.225Z,44.24
2022-08-01T04:41:49.210Z,44.70
2022-08-01T04:42:49.233Z,44.18
2022-08-01T04:43:49.214Z,44.15
2022-08-01T04:44:49.201Z,44.46
2022-08-01T04:45:49.206Z,44.90
2022-08-01T04:46:49.177Z,44.55
2022-08-01T04:47:49.198Z,42.57
2022-08-01T04:48:49.238Z,45.41
2022-08-01T04:49:49.516Z,44.28
2022-08-01T04:50:49.153Z,44.16
2022-08-01T04:51:49.152Z,43.40
2022-08-01T04:52:49.168Z,42.98
2022-08-01T04:53:49.126Z,41.66
2022-08-01T04:54:49.125Z,41.96
2022-08-01T04:55:49.137Z,45.08
2022-08-01T04:56:49.100Z,44.25
2022-08-01T04:57:49.150Z,40.61
2022-08-01T04:58:49.106Z,41.76
2022-08-01T04:59:49.092Z,41.25
2022-08-01T05:00:49.306Z,43.70
2022-08-01T05:01:49.134Z,40.90
2022-08-01T05:02:49.097Z,42.87
2022-08-01T05:03:49.065Z,41.47
2022-08-01T05:04:49.053Z,41.83
2022-08-01T05:05:49.047Z,42.62
2022-08-01T05:06:49.030Z,45.93
2022-08-01T05:07:49.030Z,45.73
2022-08-01T05:08:49.060Z,44.20
2022-08-01T05:09:49.011Z,45.19
2022-08-01T05:10:48.998Z,44.35
2022-08-01T05:11:48.990Z,45.78
2022-08-01T05:12:48.987Z,42.86
2022-08-01T05:13:48.999Z,44.47
2022-08-01T05:14:48.973Z,43.31
2022-08-01T05:15:49.441Z,43.29
2022-08-01T05:16:48.984Z,41.68
2022-08-01T05:17:49.015Z,42.88
2022-08-01T05:18:48.974Z,45.07
2022-08-01T05:19:48.937Z,43.59
2022-08-01T05:20:48.929Z,45.42
2022-08-01T05:21:48.918Z,44.50
2022-08-01T05:22:48.926Z,46.15
2022-08-01T05:23:48.977Z,40.92
2022-08-01T05:24:49.182Z,43.65
2022-08-01T05:25:56.382Z,46.66
2022-08-01T05:26:49.893Z,50.73
2022-08-01T05:27:49.197Z,43.85
2022-08-01T05:28:48.911Z,45.67
2022-08-01T05:29:48.955Z,45.91
2022-08-01T05:30:48.858Z,48.76
2022-08-01T05:31:48.858Z,45.56
2022-08-01T05:32:48.888Z,46.19
2022-08-01T05:33:48.858Z,43.70
2022-08-01T05:34:49.869Z,42.11
2022-08-01T05:35:49.454Z,44.86
2022-08-01T05:36:52.924Z,46.45
2022-08-01T05:37:49.811Z,44.72
2022-08-01T05:38:48.803Z,44.95
2022-08-01T05:39:48.804Z,47.06
2022-08-01T05:40:49.792Z,43.98
2022-08-01T05:41:48.778Z,46.72
2022-08-01T05:42:48.759Z,43.80
2022-08-01T05:43:48.827Z,46.22
2022-08-01T05:44:48.810Z,45.41
2022-08-01T05:45:48.773Z,44.32
2022-08-01T05:46:48.764Z,45.87
2022-08-01T05:47:48.740Z,45.68
2022-08-01T05:48:48.814Z,45.44
2022-08-01T05:49:48.778Z,46.11
2022-08-01T05:50:48.832Z,46.65
2022-08-01T05:51:48.723Z,45.44
2022-08-01T05:52:48.715Z,44.67
2022-08-01T05:53:48.706Z,43.75
2022-08-01T05:54:48.789Z,43.15
2022-08-01T05:55:48.701Z,44.00
2022-08-01T05:56:48.719Z,43.69
2022-08-01T05:57:48.745Z,40.27
2022-08-01T05:58:48.692Z,42.84
2022-08-01T05:59:48.658Z,44.51
2022-08-01T06:00:48.680Z,43.76
2022-08-01T06:01:48.681Z,43.32
2022-08-01T06:02:48.631Z,42.85
2022-08-01T06:03:48.634Z,41.50
2022-08-01T06:04:48.623Z,41.89
2022-08-01T06:05:48.659Z,41.50
2022-08-01T06:06:48.611Z,41.84
2022-08-01T06:07:48.666Z,39.82
2022-08-01T06:08:48.634Z,42.19
2022-08-01T06:09:48.588Z,40.40
2022-08-01T06:10:48.597Z,42.39
2022-08-01T06:11:48.571Z,43.42
2022-08-01T06:12:48.571Z,40.31
2022-08-01T06:13:49.075Z,42.15
2022-08-01T06:14:48.540Z,40.30
2022-08-01T06:15:48.591Z,43.32
2022-08-01T06:16:48.541Z,40.04
2022-08-01T06:17:49.523Z,42.16
2022-08-01T06:18:48.527Z,40.84
2022-08-01T06:19:48.554Z,40.91
2022-08-01T06:20:48.544Z,43.88
2022-08-01T06:21:49.577Z,39.23
2022-08-01T06:22:52.490Z,41.64
2022-08-01T06:23:48.481Z,40.58
2022-08-01T06:24:48.474Z,40.37
2022-08-01T06:25:48.463Z,40.91
2022-08-01T06:26:48.482Z,41.78
2022-08-01T06:27:48.504Z,43.96
2022-08-01T06:28:48.465Z,42.21
2022-08-01T06:29:50.332Z,41.69
2022-08-01T06:30:48.420Z,42.85
2022-08-01T06:31:49.451Z,42.56
2022-08-01T06:32:48.418Z,42.05
2022-08-01T06:33:48.410Z,43.61
2022-08-01T06:34:48.412Z,42.71
2022-08-01T06:35:48.478Z,42.01
2022-08-01T06:36:48.432Z,42.75
2022-08-01T06:37:48.372Z,40.68
2022-08-01T06:38:48.690Z,41.40
2022-08-01T06:39:48.370Z,40.71
2022-08-01T06:40:48.356Z,42.68
2022-08-01T06:41:48.375Z,43.84
2022-08-01T06:42:48.349Z,41.44
2022-08-01T06:43:48.379Z,42.50
2022-08-01T06:44:48.354Z,41.21
2022-08-01T06:45:49.238Z,40.75
2022-08-01T06:46:48.417Z,41.22
2022-08-01T06:47:50.793Z,41.22
2022-08-01T06:48:48.357Z,40.87
2022-08-01T06:49:48.307Z,41.82
2022-08-01T06:50:48.318Z,40.52
2022-08-01T06:51:48.351Z,42.62
2022-08-01T06:52:48.293Z,42.94
2022-08-01T06:53:48.312Z,43.34
2022-08-01T06:54:48.281Z,42.26
2022-08-01T06:55:48.294Z,41.66
2022-08-01T06:56:48.279Z,41.24
2022-08-01T06:57:48.279Z,42.23
2022-08-01T06:58:48.248Z,41.74
2022-08-01T06:59:54.226Z,40.73
2022-08-01T07:00:49.340Z,40.46
2022-08-01T07:01:48.243Z,41.32
2022-08-01T07:02:48.260Z,42.49
2022-08-01T07:03:52.919Z,43.03
2022-08-01T07:04:49.229Z,41.45
2022-08-01T07:05:48.210Z,40.52
2022-08-01T07:06:48.196Z,42.23
2022-08-01T07:07:48.216Z,40.16
2022-08-01T07:08:48.182Z,40.07
2022-08-01T07:09:48.176Z,40.08
2022-08-01T07:10:48.172Z,41.56
2022-08-01T07:11:48.164Z,43.29
2022-08-01T07:12:48.184Z,43.68
2022-08-01T07:13:48.143Z,44.32
2022-08-01T07:14:48.144Z,42.03
2022-08-01T07:15:48.141Z,41.74
2022-08-01T07:16:48.123Z,42.41
2022-08-01T07:17:48.169Z,43.63
2022-08-01T07:18:48.108Z,40.88
2022-08-01T07:19:48.103Z,38.99
2022-08-01T07:20:50.433Z,40.42
2022-08-01T07:21:50.063Z,40.59
2022-08-01T07:22:48.386Z,40.99
2022-08-01T07:23:48.080Z,42.50
2022-08-01T07:24:48.055Z,40.01
2022-08-01T07:25:50.439Z,40.33
2022-08-01T07:26:53.923Z,42.95
2022-08-01T07:27:49.073Z,43.00
2022-08-01T07:28:48.050Z,42.54
2022-08-01T07:29:48.007Z,42.45
2022-08-01T07:30:48.012Z,42.63
2022-08-01T07:31:48.010Z,41.02
2022-08-01T07:32:49.005Z,40.63
2022-08-01T07:33:49.198Z,40.72
2022-08-01T07:34:47.979Z,41.18
2022-08-01T07:35:48.015Z,38.95
2022-08-01T07:36:47.956Z,41.03
2022-08-01T07:37:48.897Z,45.05
2022-08-01T07:38:47.976Z,42.53
2022-08-01T07:39:47.947Z,41.06
2022-08-01T07:40:47.928Z,40.59
2022-08-01T07:42:06.159Z,39.47
2022-08-01T07:42:48.924Z,38.36
2022-08-01T07:43:56.653Z,40.17
2022-08-01T07:44:49.910Z,37.83
2022-08-01T07:45:47.906Z,42.52
2022-08-01T07:46:47.880Z,41.28
2022-08-01T07:47:47.894Z,42.02
2022-08-01T07:48:47.898Z,41.79
2022-08-01T07:49:48.026Z,41.21
2022-08-01T07:50:47.866Z,37.98
2022-08-01T07:52:03.850Z,36.48
2022-08-01T07:52:48.852Z,38.34
2022-08-01T07:53:47.836Z,41.10
2022-08-01T07:54:51.863Z,43.20
2022-08-01T07:55:48.831Z,40.87
2022-08-01T07:56:47.855Z,43.47
2022-08-01T07:57:47.809Z,42.25
2022-08-01T07:58:47.815Z,42.25
2022-08-01T07:59:47.799Z,43.53
2022-08-01T08:00:47.832Z,43.32
2022-08-01T08:01:47.873Z,42.92
2022-08-01T08:02:47.784Z,40.04
2022-08-01T08:03:47.773Z,41.35
2022-08-01T08:04:49.260Z,41.59
2022-08-01T08:05:58.297Z,41.99
2022-08-01T08:06:48.748Z,39.43
2022-08-01T08:07:50.505Z,41.98
2022-08-01T08:08:47.721Z,39.52
2022-08-01T08:09:51.236Z,39.47
2022-08-01T08:10:47.777Z,42.36
2022-08-01T08:11:48.477Z,40.96
2022-08-01T08:12:48.707Z,35.04
2022-08-01T08:13:47.700Z,42.79
2022-08-01T08:14:47.687Z,42.88
2022-08-01T08:15:48.346Z,42.59
2022-08-01T08:16:47.718Z,41.69
2022-08-01T08:17:54.898Z,40.94
2022-08-01T08:18:47.664Z,40.10
2022-08-01T08:19:47.657Z,42.04
2022-08-01T08:20:47.667Z,40.67
2022-08-01T08:21:47.673Z,44.45
2022-08-01T08:22:47.650Z,39.33
2022-08-01T08:23:47.639Z,41.50
2022-08-01T08:24:47.616Z,38.60
2022-08-01T08:25:47.615Z,41.53
2022-08-01T08:26:47.602Z,45.29
2022-08-01T08:27:47.704Z,40.77
2022-08-01T08:28:47.599Z,40.80
2022-08-01T08:29:47.582Z,40.56
2022-08-01T08:30:47.598Z,40.79
2022-08-01T08:31:51.853Z,42.43
2022-08-01T08:32:48.601Z,40.94
2022-08-01T08:33:47.557Z,37.84
2022-08-01T08:34:47.556Z,40.74
2022-08-01T08:35:53.622Z,39.81
2022-08-01T08:36:48.543Z,37.89
2022-08-01T08:37:49.122Z,42.95
2022-08-01T08:38:47.566Z,43.15
2022-08-01T08:39:47.525Z,39.83
2022-08-01T08:40:47.528Z,41.63
2022-08-01T08:41:49.093Z,41.31
2022-08-01T08:42:47.520Z,40.71
2022-08-01T08:43:47.572Z,40.01
2022-08-01T08:44:47.472Z,39.70
2022-08-01T08:45:58.960Z,41.16
2022-08-01T08:46:48.467Z,41.91
2022-08-01T08:47:47.463Z,40.81
2022-08-01T08:48:47.556Z,38.68
2022-08-01T08:49:49.436Z,36.14
2022-08-01T08:50:47.450Z,41.88
2022-08-01T08:51:47.430Z,40.72
2022-08-01T08:52:47.437Z,41.31
2022-08-01T08:53:47.466Z,40.99
2022-08-01T08:54:47.451Z,41.95
2022-08-01T08:55:55.380Z,42.37
2022-08-01T08:56:48.403Z,38.50
2022-08-01T08:57:47.379Z,42.55
2022-08-01T08:58:47.392Z,43.07
2022-08-01T08:59:47.375Z,41.83
2022-08-01T09:00:47.417Z,40.39
2022-08-01T09:01:47.357Z,40.83
2022-08-01T09:02:47.429Z,42.52
2022-08-01T09:03:47.369Z,42.74
2022-08-01T09:04:47.340Z,42.03
2022-08-01T09:05:47.387Z,43.31
2022-08-01T09:06:47.323Z,39.51
2022-08-01T09:07:47.315Z,41.38
2022-08-01T09:08:47.311Z,41.55
2022-08-01T09:09:47.293Z,38.25
2022-08-01T09:10:47.297Z,38.56
2022-08-01T09:11:57.023Z,41.54
2022-08-01T09:12:48.283Z,40.28
2022-08-01T09:13:47.291Z,40.49
2022-08-01T09:14:47.279Z,40.64
2022-08-01T09:15:47.267Z,41.96
2022-08-01T09:16:49.088Z,51.55
2022-08-01T09:17:48.250Z,38.29
2022-08-01T09:18:53.449Z,39.68
2022-08-01T09:19:49.164Z,40.73
2022-08-01T09:20:47.226Z,38.88
2022-08-01T09:21:47.223Z,42.15
2022-08-01T09:22:47.987Z,40.11
2022-08-01T09:23:54.101Z,42.13
2022-08-01T09:24:47.199Z,42.62
2022-08-01T09:25:47.836Z,44.44
2022-08-01T09:26:47.183Z,43.86
2022-08-01T09:27:47.214Z,37.62
2022-08-01T09:28:48.021Z,40.77
2022-08-01T09:29:49.964Z,42.99
2022-08-01T09:30:48.181Z,41.55
2022-08-01T09:31:48.007Z,38.05
2022-08-01T09:32:48.197Z,40.74
2022-08-01T09:33:47.141Z,37.45
2022-08-01T09:34:47.126Z,41.22
2022-08-01T09:35:48.014Z,40.50
2022-08-01T09:36:47.107Z,37.52
2022-08-01T09:37:47.333Z,40.49
2022-08-01T09:38:50.893Z,38.95
2022-08-01T09:39:48.096Z,40.83
2022-08-01T09:40:47.096Z,38.40
2022-08-01T09:41:47.084Z,37.44
2022-08-01T09:42:47.061Z,38.10
2022-08-01T09:43:47.107Z,36.62
2022-08-01T09:44:54.798Z,37.38
2022-08-01T09:45:50.609Z,38.60
2022-08-01T09:46:48.038Z,39.80
2022-08-01T09:47:47.037Z,39.75
2022-08-01T09:48:49.325Z,42.01
2022-08-01T09:49:50.753Z,40.19
2022-08-01T09:50:47.013Z,41.33
2022-08-01T09:51:59.133Z,41.00
2022-08-01T09:52:48.005Z,39.53
2022-08-01T09:53:51.420Z,39.17
2022-08-01T09:54:48.013Z,41.25
2022-08-01T09:55:46.986Z,40.15
2022-08-01T09:56:46.971Z,40.36
2022-08-01T09:57:46.964Z,40.44
2022-08-01T09:58:46.966Z,36.10
2022-08-01T09:59:58.403Z,39.88
2022-08-01T10:00:48.981Z,40.66
2022-08-01T10:01:46.934Z,42.94
2022-08-01T10:02:46.957Z,40.17
2022-08-01T10:03:46.954Z,40.70
2022-08-01T10:04:46.914Z,39.84
2022-08-01T10:05:50.005Z,39.72
2022-08-01T10:06:46.903Z,41.27
2022-08-01T10:07:46.903Z,41.36
2022-08-01T10:08:46.875Z,41.62
2022-08-01T10:09:47.893Z,37.31
2022-08-01T10:10:46.936Z,38.88
2022-08-01T10:11:47.941Z,41.85
2022-08-01T10:12:47.723Z,41.54
2022-08-01T10:13:46.840Z,41.65
2022-08-01T10:14:46.902Z,40.64
2022-08-01T10:15:46.836Z,40.75
2022-08-01T10:16:53.609Z,36.94
2022-08-01T10:17:50.621Z,40.61
2022-08-01T10:18:46.815Z,38.32
2022-08-01T10:19:46.847Z,39.73
2022-08-01T10:20:46.798Z,39.51
2022-08-01T10:21:57.413Z,39.83
2022-08-01T10:22:47.815Z,40.19
2022-08-01T10:23:46.811Z,37.90
2022-08-01T10:24:46.769Z,39.26
2022-08-01T10:25:47.334Z,38.98
2022-08-01T10:26:46.753Z,37.66
2022-08-01T10:27:46.795Z,35.43
2022-08-01T10:28:46.729Z,35.36
2022-08-01T10:30:05.505Z,38.60
2022-08-01T10:30:49.422Z,36.97
2022-08-01T10:31:50.468Z,41.67
2022-08-01T10:32:50.526Z,38.45
2022-08-01T10:33:51.934Z,36.34
2022-08-01T10:34:47.697Z,40.81
2022-08-01T10:35:48.169Z,38.03
2022-08-01T10:36:47.686Z,40.46
2022-08-01T10:37:52.299Z,41.13
2022-08-01T10:38:47.706Z,39.37
2022-08-01T10:39:47.664Z,36.55
2022-08-01T10:40:46.671Z,37.46
2022-08-01T10:41:46.657Z,38.11
2022-08-01T10:42:46.666Z,35.76
2022-08-01T10:43:47.043Z,37.28
2022-08-01T10:44:46.679Z,37.44
2022-08-01T10:45:46.625Z,37.28
2022-08-01T10:46:46.637Z,35.37
2022-08-01T10:47:50.952Z,41.02
2022-08-01T10:48:46.664Z,36.83
2022-08-01T10:49:46.707Z,39.75
2022-08-01T10:50:48.457Z,40.51
2022-08-01T10:51:52.759Z,38.52
2022-08-01T10:52:47.629Z,36.22
2022-08-01T10:53:46.656Z,36.10
2022-08-01T10:54:52.123Z,34.98
2022-08-01T10:55:48.115Z,41.28
2022-08-01T10:56:46.592Z,40.01
2022-08-01T10:57:48.828Z,38.84
2022-08-01T10:58:47.643Z,37.65
2022-08-01T10:59:49.756Z,39.09
2022-08-01T11:00:46.720Z,38.55
2022-08-01T11:01:46.578Z,44.41
2022-08-01T11:02:46.853Z,39.02
2022-08-01T11:03:57.178Z,37.38
2022-08-01T11:04:48.563Z,35.96
2022-08-01T11:05:47.125Z,44.08
2022-08-01T11:06:47.778Z,43.06
2022-08-01T11:07:46.690Z,42.84
2022-08-01T11:08:46.691Z,36.89
2022-08-01T11:09:51.769Z,39.81
2022-08-01T11:10:47.640Z,37.46
2022-08-01T11:11:46.535Z,39.76
2022-08-01T11:12:46.530Z,39.91
2022-08-01T11:13:46.563Z,42.70
2022-08-01T11:14:55.640Z,41.11
2022-08-01T11:15:50.535Z,39.20
2022-08-01T11:16:46.549Z,36.89
2022-08-01T11:17:46.738Z,35.26
2022-08-01T11:18:46.554Z,38.81
2022-08-01T11:19:46.578Z,40.68
2022-08-01T11:20:47.108Z,38.75
2022-08-01T11:21:57.225Z,37.47
2022-08-01T11:22:47.423Z,38.17
2022-08-01T11:23:46.388Z,38.43
2022-08-01T11:24:50.683Z,38.70
2022-08-01T11:26:05.786Z,35.04
2022-08-01T11:26:47.439Z,30.22
2022-08-01T11:27:46.374Z,33.18
2022-08-01T11:29:10.815Z,33.17
2022-08-01T11:29:48.346Z,37.05
2022-08-01T11:30:46.355Z,36.47
2022-08-01T11:31:46.788Z,35.44
2022-08-01T11:33:06.668Z,34.66
2022-08-01T11:33:48.358Z,33.92
2022-08-01T11:34:46.321Z,38.89
2022-08-01T11:35:46.355Z,37.87
2022-08-01T11:37:01.692Z,38.11
2022-08-01T11:37:48.373Z,36.59
2022-08-01T11:38:46.300Z,38.23
2022-08-01T11:39:46.306Z,35.39
2022-08-01T11:40:46.379Z,34.90
2022-08-01T11:41:46.284Z,33.68
2022-08-01T11:42:46.301Z,36.53
2022-08-01T11:43:46.265Z,37.72
2022-08-01T11:44:46.302Z,35.32
2022-08-01T11:45:46.244Z,35.63
2022-08-01T11:46:46.247Z,38.34
2022-08-01T11:47:46.259Z,38.04
2022-08-01T11:48:46.232Z,34.72
2022-08-01T11:49:48.904Z,35.80
2022-08-01T11:50:46.216Z,34.70
2022-08-01T11:51:46.208Z,39.67
2022-08-01T11:52:46.200Z,36.12
2022-08-01T11:53:46.214Z,37.17
2022-08-01T11:54:46.270Z,36.54
2022-08-01T11:55:47.635Z,34.88
2022-08-01T11:56:48.170Z,37.09
2022-08-01T11:57:46.182Z,36.28
2022-08-01T11:58:46.203Z,37.60
2022-08-01T11:59:55.423Z,37.47
2022-08-01T12:00:47.181Z,37.56
2022-08-01T12:01:46.130Z,35.01
2022-08-01T12:02:46.419Z,31.64
2022-08-01T12:03:46.132Z,37.44
2022-08-01T12:04:46.140Z,35.25
2022-08-01T12:05:46.127Z,31.57
2022-08-01T12:06:46.122Z,36.41
2022-08-01T12:07:46.099Z,35.55
2022-08-01T12:08:46.094Z,36.50
2022-08-01T12:09:46.176Z,36.75
2022-08-01T12:10:49.383Z,32.22
2022-08-01T12:11:46.063Z,38.36
2022-08-01T12:12:46.073Z,34.75
2022-08-01T12:13:46.054Z,36.41
2022-08-01T12:14:46.246Z,36.73
2022-08-01T12:15:46.066Z,39.10
2022-08-01T12:16:46.056Z,42.92
2022-08-01T12:17:57.264Z,35.90
2022-08-01T12:18:47.021Z,35.97
2022-08-01T12:19:46.126Z,35.70
2022-08-01T12:20:57.397Z,33.19
2022-08-01T12:21:48.000Z,36.32
2022-08-01T12:22:45.993Z,37.80
2022-08-01T12:23:45.988Z,35.54
2022-08-01T12:24:45.977Z,36.70
2022-08-01T12:25:45.991Z,38.49
2022-08-01T12:26:45.984Z,33.91
2022-08-01T12:27:45.965Z,34.46
2022-08-01T12:28:45.935Z,35.65
2022-08-01T12:29:45.942Z,37.07
2022-08-01T12:30:45.988Z,37.76
2022-08-01T12:31:45.936Z,36.63
2022-08-01T12:32:45.917Z,38.06
2022-08-01T12:33:45.965Z,33.98
2022-08-01T12:34:45.925Z,35.60
2022-08-01T12:35:45.981Z,34.93
2022-08-01T12:36:45.913Z,35.53
2022-08-01T12:37:45.901Z,35.71
2022-08-01T12:38:45.879Z,35.16
2022-08-01T12:39:45.896Z,32.72
2022-08-01T12:40:45.994Z,36.65
2022-08-01T12:41:46.005Z,39.82
2022-08-01T12:42:45.863Z,38.70
2022-08-01T12:43:45.846Z,44.16
2022-08-01T12:44:45.869Z,36.12
2022-08-01T12:45:54.517Z,32.85
2022-08-01T12:46:46.877Z,33.81
2022-08-01T12:47:45.831Z,36.09
2022-08-01T12:48:45.817Z,38.46
2022-08-01T12:49:45.827Z,37.63
2022-08-01T12:50:45.816Z,36.30
2022-08-01T12:51:45.928Z,36.18
2022-08-01T12:52:46.790Z,36.42